Slocum, Texas
Current Conditions -  °F | °C
As of 7:55 AM on Wednesday 26 Nov 2014 (Local Time) from KPSN Reporting Station
Clear Clear  
Wind Chill: 39°   Ceiling: Unl
Heat Index: 43°   Visibility: 10mi
Dew Point: 35°   Wind: 7mph
Humidity: 73%   Direction: 170°S
Pressure: 30.14"   Gusts: NA
Location:  31.6239°N, 95.528°W
Report Text: KPSN 261355Z AUTO 17006KT 10SM CLR 06/01 A3014 RMK AO2 T00620016
Loading
Personal Weather Stations






























Interactive Weather Map New forecast layout! Learn more

10-Day Weather Forecast

Advertisements
Track Severe Weather on mobile